Time;durP1;ratioP1;P1;durP2;ratioP2;P2;SDS_P1;SDS_P2;PMS_P1;PMS_P2;Temp;Humidity;BMP_temperature;BMP_pressure;BME280_temperature;BME280_humidity;BME280_pressure;Samples;Min_cycle;Max_cycle;Signal;HPM_P1;HPM_P2
2024/01/10 00:01:08;;;;;;;38.60;14.90;;;;;;;-141.97;100.00;46323.78;5053169;28;20202;-83
2024/01/10 00:03:34;;;;;;;54.13;21.30;;;;;;;-141.97;100.00;46362.22;5052024;28;20172;-81
2024/01/10 00:05:59;;;;;;;54.27;18.70;;;;;;;-141.97;100.00;46423.69;5068259;28;20523;-82
2024/01/10 00:08:25;;;;;;;53.80;20.93;;;;;;;-141.97;100.00;46665.78;5068245;28;20208;-82
2024/01/10 00:10:52;;;;;;;49.97;20.40;;;;;;;-141.97;100.00;46298.81;5068207;28;20244;-82
2024/01/10 00:13:17;;;;;;;48.88;19.95;;;;;;;-141.97;100.00;46314.16;5053041;28;20645;-82
2024/01/10 00:15:43;;;;;;;42.00;15.80;;;;;;;-141.97;100.00;46269.97;5053089;28;20168;-82
2024/01/10 00:18:08;;;;;;;45.03;17.70;;;;;;;-141.97;100.00;46281.50;5052972;28;20161;-82
2024/01/10 00:20:33;;;;;;;36.93;15.10;;;;;;;-141.97;100.00;46369.88;5067877;28;20244;-81
2024/01/10 00:22:59;;;;;;;35.70;13.73;;;;;;;-141.97;100.00;46763.81;5052988;28;20185;-81
2024/01/10 00:25:24;;;;;;;32.67;12.37;;;;;;;-141.97;100.00;46287.28;5051788;28;20557;-82
2024/01/10 00:27:50;;;;;;;29.27;12.37;;;;;;;-141.97;100.00;46404.47;5051437;28;20574;-83
2024/01/10 00:30:15;;;;;;;46.33;15.07;;;;;;;-141.97;100.00;46346.84;5052505;28;20261;-82
2024/01/10 00:32:40;;;;;;;42.77;16.63;;;;;;;-141.97;100.00;46690.78;5053006;28;20161;-81
2024/01/10 00:35:06;;;;;;;40.30;16.40;;;;;;;-141.97;100.00;46406.41;5052358;28;20204;-81
2024/01/10 00:37:31;;;;;;;47.03;18.13;;;;;;;-141.97;100.00;46398.72;5052577;28;20182;-82
2024/01/10 00:39:57;;;;;;;48.57;18.07;;;;;;;-141.97;100.00;46433.28;5052291;28;20169;-82
2024/01/10 00:42:22;;;;;;;52.07;21.80;;;;;;;-141.97;100.00;46446.75;5052558;28;20169;-81
2024/01/10 00:44:48;;;;;;;33.27;12.93;;;;;;;-141.97;100.00;46419.84;5052090;28;20317;-82
2024/01/10 00:47:13;;;;;;;51.13;19.63;;;;;;;-141.97;100.00;46431.38;5052582;28;20248;-81
2024/01/10 00:49:38;;;;;;;49.27;19.53;;;;;;;-141.97;100.00;46364.13;5052095;28;20169;-82
2024/01/10 00:52:04;;;;;;;41.23;14.83;;;;;;;-141.97;100.00;46433.28;5052371;28;20510;-82
2024/01/10 00:54:29;;;;;;;46.83;19.63;;;;;;;-141.97;100.00;46243.09;5052186;28;20554;-81
2024/01/10 00:56:55;;;;;;;47.77;18.87;;;;;;;-141.97;100.00;46350.69;5050841;28;20195;-82
2024/01/10 00:59:20;;;;;;;48.00;19.67;;;;;;;-141.97;100.00;46423.69;5050764;28;20256;-82
2024/01/10 01:01:45;;;;;;;40.20;15.33;;;;;;;-141.97;100.00;46809.91;5050920;28;20169;-83
2024/01/10 01:04:11;;;;;;;48.37;19.03;;;;;;;-141.97;100.00;46450.59;5056172;28;20172;-84
2024/01/10 01:06:36;;;;;;;49.73;20.87;;;;;;;-141.97;100.00;46335.31;5052509;28;20169;-83
2024/01/10 01:09:02;;;;;;;40.83;16.73;;;;;;;-141.97;100.00;46268.06;5051905;28;20193;-82
2024/01/10 01:11:27;;;;;;;48.73;16.97;;;;;;;-141.97;100.00;46166.22;5052080;28;20556;-82
2024/01/10 01:13:53;;;;;;;47.60;18.70;;;;;;;-141.97;100.00;46102.81;5051787;28;20166;-83
2024/01/10 01:16:18;;;;;;;52.17;22.50;;;;;;;-141.97;100.00;46417.94;5051901;28;20153;-84
2024/01/10 01:18:45;;;;;;;52.23;21.23;;;;;;;-141.97;100.00;46125.88;5051954;28;20165;-84
2024/01/10 01:21:11;;;;;;;59.33;24.95;;;;;;;-141.97;100.00;46216.19;5051606;28;20572;-83
2024/01/10 01:23:36;;;;;;;51.97;21.65;;;;;;;-141.97;100.00;46339.16;5050251;28;20648;-84
2024/01/10 01:26:03;;;;;;;54.63;23.10;;;;;;;-141.97;100.00;46588.94;5066973;28;20173;-83
2024/01/10 01:28:29;;;;;;;54.30;21.60;;;;;;;-141.97;100.00;46191.22;5067027;28;20201;-83
2024/01/10 01:30:54;;;;;;;60.53;21.40;;;;;;;-141.97;100.00;46806.06;5055803;28;20195;-83
2024/01/10 01:33:20;;;;;;;59.50;24.00;;;;;;;-141.97;100.00;46175.84;5070379;28;20176;-83
2024/01/10 01:35:45;;;;;;;66.30;25.20;;;;;;;-141.97;100.00;46291.13;5070070;28;20165;-83
2024/01/10 01:38:11;;;;;;;47.47;19.77;;;;;;;-141.97;100.00;46423.69;5071198;28;20222;-83
2024/01/10 01:40:36;;;;;;;56.13;22.57;;;;;;;-141.97;100.00;46427.53;5071221;28;20191;-84
2024/01/10 01:43:15;;;;;;;55.37;22.37;;;;;;;-141.97;100.00;46256.53;5071367;28;20270;-84
2024/01/10 01:45:40;;;;;;;51.47;21.55;;;;;;;-141.97;100.00;46158.53;5069706;28;20231;-83
2024/01/10 01:48:06;;;;;;;52.27;21.87;;;;;;;-141.97;100.00;46331.47;5069583;28;20205;-83
2024/01/10 01:50:32;;;;;;;58.70;24.83;;;;;;;-141.97;100.00;46208.50;5070714;28;20268;-82
2024/01/10 01:52:57;;;;;;;57.60;22.97;;;;;;;-141.97;100.00;46402.56;5071323;28;20618;-84
2024/01/10 01:55:24;;;;;;;52.33;21.80;;;;;;;-141.97;100.00;46229.63;5071050;28;20165;-83
2024/01/10 01:57:49;;;;;;;55.80;23.33;;;;;;;-141.97;100.00;46373.72;5070783;28;20164;-83
2024/01/10 02:00:15;;;;;;;44.07;17.30;;;;;;;-141.97;100.00;46358.38;5070675;28;20168;-84
2024/01/10 02:02:43;;;;;;;60.33;25.13;;;;;;;-141.97;100.00;46761.88;5069434;28;20165;-84
2024/01/10 02:05:09;;;;;;;41.13;18.10;;;;;;;-141.97;100.00;46808.00;5071749;28;20489;-83
2024/01/10 02:07:35;;;;;;;55.80;23.80;;;;;;;-141.97;100.00;46419.84;5070324;28;20203;-84
2024/01/10 02:10:00;;;;;;;57.97;24.13;;;;;;;-141.97;100.00;46725.38;5070978;28;20168;-83
2024/01/10 02:12:26;;;;;;;51.50;20.53;;;;;;;-141.97;100.00;46464.03;5069977;28;20649;-83
2024/01/10 02:14:52;;;;;;;52.20;23.50;;;;;;;-141.97;100.00;46767.66;5071513;28;20153;-83
2024/01/10 02:17:17;;;;;;;56.20;25.65;;;;;;;-141.97;100.00;46366.06;5069365;28;20255;-84
2024/01/10 02:19:43;;;;;;;56.43;23.80;;;;;;;-141.97;100.00;46538.97;5069311;28;20192;-84
2024/01/10 02:22:08;;;;;;;52.37;23.30;;;;;;;-141.97;100.00;46364.13;5069691;28;20185;-80
2024/01/10 02:24:33;;;;;;;57.90;25.63;;;;;;;-141.97;100.00;46761.88;5072456;28;20173;-82
2024/01/10 02:26:59;;;;;;;59.10;25.63;;;;;;;-141.97;100.00;46440.97;5069536;28;20653;-82
2024/01/10 02:29:25;;;;;;;56.40;23.50;;;;;;;-141.97;100.00;46135.50;5071028;28;20184;-83
2024/01/10 02:31:50;;;;;;;43.07;17.13;;;;;;;-141.97;100.00;46698.47;5071449;28;20167;-82
2024/01/10 02:34:15;;;;;;;47.17;19.70;;;;;;;-141.97;100.00;46485.19;5070194;28;20163;-83
2024/01/10 02:36:41;;;;;;;42.53;16.97;;;;;;;-141.97;100.00;46400.63;5070319;28;20613;-83
2024/01/10 02:39:06;;;;;;;44.73;18.17;;;;;;;-141.97;100.00;46083.63;5073445;28;20260;-83
2024/01/10 02:41:32;;;;;;;44.47;17.93;;;;;;;-141.97;100.00;46152.78;5078324;28;20160;-83
2024/01/10 02:43:58;;;;;;;43.90;17.97;;;;;;;-141.97;100.00;46677.31;5087743;28;20153;-83
2024/01/10 02:46:27;;;;;;;40.75;17.50;;;;;;;-141.97;100.00;46254.59;5092261;28;20220;-84
2024/01/10 02:48:54;;;;;;;46.50;19.40;;;;;;;-141.97;100.00;46719.59;5091692;28;20185;-83
2024/01/10 02:51:19;;;;;;;45.10;19.17;;;;;;;-141.97;100.00;46271.91;5090335;28;20217;-83
2024/01/10 02:53:44;;;;;;;44.77;19.23;;;;;;;-141.97;100.00;46304.56;5088490;28;20169;-83
2024/01/10 02:56:10;;;;;;;48.57;20.07;;;;;;;-141.97;100.00;46243.09;5080564;28;20238;-83
2024/01/10 02:58:35;;;;;;;45.37;19.73;;;;;;;-141.97;100.00;46423.69;5071610;28;20184;-82
2024/01/10 03:01:01;;;;;;;49.03;20.83;;;;;;;-141.97;100.00;46314.16;5070181;28;20164;-82
2024/01/10 03:03:26;;;;;;;46.27;18.47;;;;;;;-141.97;100.00;46665.78;5068907;28;20616;-82
2024/01/10 03:05:52;;;;;;;45.17;19.70;;;;;;;-141.97;100.00;46248.84;5070218;28;20164;-83
2024/01/10 03:08:17;;;;;;;45.33;19.23;;;;;;;-141.97;100.00;46423.69;5070547;28;20254;-83
2024/01/10 03:10:42;;;;;;;43.97;17.63;;;;;;;-141.97;100.00;46408.31;5070251;28;20579;-82
2024/01/10 03:13:08;;;;;;;38.67;17.03;;;;;;;-141.97;100.00;46204.66;5070760;28;20168;-82
2024/01/10 03:15:33;;;;;;;41.13;17.60;;;;;;;-141.97;100.00;46327.63;5071812;28;20654;-82
2024/01/10 03:18:00;;;;;;;40.47;17.70;;;;;;;-141.97;100.00;46400.63;5070993;28;20206;-84
2024/01/10 03:20:25;;;;;;;47.80;19.33;;;;;;;-141.97;100.00;46565.88;5070214;28;20542;-85
2024/01/10 03:22:50;;;;;;;46.20;20.00;;;;;;;-141.97;100.00;46352.59;5070971;28;20402;-84
2024/01/10 03:25:16;;;;;;;41.77;16.73;;;;;;;-141.97;100.00;46763.81;5070108;28;20263;-85
2024/01/10 03:27:41;;;;;;;41.07;17.53;;;;;;;-141.97;100.00;46663.88;5070393;28;20188;-84
2024/01/10 03:30:07;;;;;;;44.47;16.67;;;;;;;-141.97;100.00;46419.84;5068717;28;20271;-84
2024/01/10 03:32:32;;;;;;;38.80;15.70;;;;;;;-141.97;100.00;46298.81;5069960;28;20165;-84
2024/01/10 03:34:58;;;;;;;38.33;15.17;;;;;;;-141.97;100.00;46304.56;5069417;28;20411;-83
2024/01/10 03:37:23;;;;;;;41.23;17.30;;;;;;;-141.97;100.00;46304.56;5069653;28;20164;-84
2024/01/10 03:39:49;;;;;;;46.73;17.80;;;;;;;-141.97;100.00;46767.66;5069673;28;20247;-84
2024/01/10 03:42:15;;;;;;;40.53;17.43;;;;;;;-141.97;100.00;46658.13;5069607;28;20161;-84
2024/01/10 03:44:41;;;;;;;45.67;17.73;;;;;;;-141.97;100.00;46408.31;5069413;28;20157;-85
2024/01/10 03:47:06;;;;;;;41.93;16.90;;;;;;;-141.97;100.00;46216.19;5069637;28;20835;-84
2024/01/10 03:49:32;;;;;;;99.03;39.70;;;;;;;-141.97;100.00;46316.09;5068254;28;20303;-84
2024/01/10 03:51:57;;;;;;;72.60;28.70;;;;;;;-141.97;100.00;46650.44;5069283;28;20234;-84
2024/01/10 03:54:23;;;;;;;43.90;17.23;;;;;;;-141.97;100.00;46623.53;5068335;28;20690;-84
2024/01/10 03:56:48;;;;;;;45.30;18.80;;;;;;;-141.97;100.00;46093.22;5070106;28;20161;-84
2024/01/10 03:59:13;;;;;;;57.33;25.37;;;;;;;-141.97;100.00;46696.53;5078906;28;20175;-85
2024/01/10 04:01:39;;;;;;;46.27;19.23;;;;;;;-141.97;100.00;46412.16;5093143;28;20184;-83
2024/01/10 04:04:05;;;;;;;49.03;20.90;;;;;;;-141.97;100.00;46335.31;5092562;28;20169;-84
2024/01/10 04:06:30;;;;;;;48.67;20.97;;;;;;;-141.97;100.00;46627.38;5074212;28;20502;-84
2024/01/10 04:08:55;;;;;;;49.20;21.87;;;;;;;-141.97;100.00;46577.41;5072406;28;20188;-84
2024/01/10 04:11:21;;;;;;;57.37;23.57;;;;;;;-141.97;100.00;46145.09;5073333;28;20177;-85
2024/01/10 04:13:46;;;;;;;53.57;23.97;;;;;;;-141.97;100.00;46339.16;5089559;28;20168;-85
2024/01/10 04:16:13;;;;;;;58.43;23.23;;;;;;;-141.97;100.00;46198.91;5072076;28;20165;-84
2024/01/10 04:18:38;;;;;;;60.73;26.00;;;;;;;-141.97;100.00;46623.53;5072667;28;20267;-84
2024/01/10 04:21:04;;;;;;;66.33;27.03;;;;;;;-141.97;100.00;46293.03;5072741;28;20398;-84
2024/01/10 04:23:30;;;;;;;68.30;26.67;;;;;;;-141.97;100.00;46713.84;5071609;28;20169;-83
2024/01/10 04:25:56;;;;;;;70.60;26.53;;;;;;;-141.97;100.00;46291.13;5073116;28;20164;-82
2024/01/10 04:28:22;;;;;;;63.53;24.87;;;;;;;-141.97;100.00;46198.91;5071874;28;20446;-84
2024/01/10 04:30:47;;;;;;;64.57;23.60;;;;;;;-141.97;100.00;46656.19;5072631;28;20167;-84
2024/01/10 04:33:12;;;;;;;62.10;24.63;;;;;;;-141.97;100.00;46193.13;5072697;28;20169;-84
2024/01/10 04:35:38;;;;;;;73.73;30.93;;;;;;;-141.97;100.00;46404.47;5073322;28;20171;-83
2024/01/10 04:38:03;;;;;;;63.87;27.47;;;;;;;-141.97;100.00;46385.25;5072593;28;20153;-83
2024/01/10 04:40:29;;;;;;;55.20;25.70;;;;;;;-141.97;100.00;46523.59;5072607;28;20164;-82
2024/01/10 04:42:54;;;;;;;50.47;21.43;;;;;;;-141.97;100.00;46256.53;5071342;28;20268;-82
2024/01/10 04:45:20;;;;;;;45.53;20.43;;;;;;;-141.97;100.00;46392.94;5072086;28;20228;-83
2024/01/10 04:47:45;;;;;;;55.27;24.13;;;;;;;-141.97;100.00;46262.28;5070964;28;20201;-83
2024/01/10 04:50:11;;;;;;;59.83;23.77;;;;;;;-141.97;100.00;46640.81;5072432;28;20216;-83
2024/01/10 04:52:36;;;;;;;58.47;24.17;;;;;;;-141.97;100.00;46229.63;5070856;28;20263;-84
2024/01/10 04:55:02;;;;;;;60.37;24.73;;;;;;;-141.97;100.00;46268.06;5072129;28;20165;-84
2024/01/10 04:57:28;;;;;;;68.83;28.27;;;;;;;-141.97;100.00;46719.59;5070952;28;20646;-82
2024/01/10 04:59:53;;;;;;;92.93;36.97;;;;;;;-141.97;100.00;46665.78;5072185;28;20399;-83
2024/01/10 05:02:19;;;;;;;110.80;44.03;;;;;;;-141.97;100.00;46350.69;5070773;28;20196;-83
2024/01/10 05:04:45;;;;;;;149.90;55.53;;;;;;;-141.97;100.00;46339.16;5087610;28;20161;-82
2024/01/10 05:07:10;;;;;;;82.93;33.80;;;;;;;-141.97;100.00;46212.34;5070254;28;20169;-82
2024/01/10 05:09:36;;;;;;;58.53;26.13;;;;;;;-141.97;100.00;46220.03;5070512;28;20443;-83
2024/01/10 05:12:02;;;;;;;63.00;24.83;;;;;;;-141.97;100.00;46481.34;5071575;28;20169;-83
2024/01/10 05:14:27;;;;;;;49.23;21.23;;;;;;;-141.97;100.00;46635.06;5070574;28;20180;-82
2024/01/10 05:16:53;;;;;;;51.93;22.07;;;;;;;-141.97;100.00;46204.66;5071649;28;20196;-83
2024/01/10 05:19:18;;;;;;;59.90;24.10;;;;;;;-141.97;100.00;46473.66;5071630;28;20160;-83
2024/01/10 05:21:44;;;;;;;65.40;27.33;;;;;;;-141.97;100.00;46227.72;5071566;28;20640;-82
2024/01/10 05:24:10;;;;;;;63.83;26.10;;;;;;;-141.97;100.00;46465.97;5071345;28;20168;-83
2024/01/10 05:26:35;;;;;;;58.47;25.53;;;;;;;-141.97;100.00;46612.00;5070938;28;20652;-84
2024/01/10 05:29:01;;;;;;;58.57;25.80;;;;;;;-141.97;100.00;46271.91;5071640;28;20188;-82
2024/01/10 05:31:26;;;;;;;57.03;26.30;;;;;;;-141.97;100.00;46271.91;5071387;28;20181;-82
2024/01/10 05:33:53;;;;;;;59.47;24.70;;;;;;;-141.97;100.00;46289.19;5071363;28;20589;-82
2024/01/10 05:36:22;;;;;;;68.70;26.93;;;;;;;-141.97;100.00;46318.00;5071225;28;20591;-83
2024/01/10 05:38:47;;;;;;;70.97;29.83;;;;;;;-141.97;100.00;46043.28;5071528;28;20457;-82
2024/01/10 05:41:14;;;;;;;85.90;35.20;;;;;;;-141.97;100.00;46245.00;5070076;28;20412;-83
2024/01/10 05:43:39;;;;;;;112.50;44.40;;;;;;;-141.97;100.00;46688.84;5071418;28;20263;-83
2024/01/10 05:46:05;;;;;;;130.27;46.47;;;;;;;-141.97;100.00;46473.66;5070025;28;20566;-82
2024/01/10 05:48:30;;;;;;;121.97;47.03;;;;;;;-141.97;100.00;46387.19;5071487;28;20197;-83
2024/01/10 05:50:56;;;;;;;170.23;60.57;;;;;;;-141.97;100.00;46442.91;5071202;28;20176;-82
2024/01/10 05:53:23;;;;;;;150.43;57.03;;;;;;;-141.97;100.00;46321.84;5071087;28;20173;-83
2024/01/10 05:55:49;;;;;;;146.18;55.72;;;;;;;-141.97;100.00;46435.22;5071474;28;20168;-86
2024/01/10 05:58:14;;;;;;;187.37;65.40;;;;;;;-141.97;100.00;46710.00;5071902;28;20160;-83
2024/01/10 06:00:40;;;;;;;136.70;49.70;;;;;;;-141.97;100.00;46421.78;5070423;28;20165;-84
2024/01/10 06:03:05;;;;;;;114.40;42.73;;;;;;;-141.97;100.00;46254.59;5071440;28;20169;-85
2024/01/10 06:05:33;;;;;;;95.57;38.20;;;;;;;-141.97;100.00;46279.59;5070610;28;20637;-84
2024/01/10 06:07:59;;;;;;;91.00;37.03;;;;;;;-141.97;100.00;46373.72;5070615;28;20197;-82
2024/01/10 06:10:24;;;;;;;75.10;29.27;;;;;;;-141.97;100.00;46446.75;5069936;28;20777;-84
2024/01/10 06:12:50;;;;;;;70.03;26.73;;;;;;;-141.97;100.00;46408.31;5071301;28;20183;-82
2024/01/10 06:15:15;;;;;;;63.40;25.03;;;;;;;-141.97;100.00;46417.94;5071061;28;20196;-84
2024/01/10 06:17:41;;;;;;;60.23;24.07;;;;;;;-141.97;100.00;46279.59;5071100;28;20165;-84
2024/01/10 06:20:07;;;;;;;56.17;23.33;;;;;;;-141.97;100.00;46385.25;5069431;28;20165;-84
2024/01/10 06:22:33;;;;;;;60.17;23.05;;;;;;;-141.97;100.00;46608.16;5069486;28;20629;-83
2024/01/10 06:24:58;;;;;;;64.15;24.17;;;;;;;-141.97;100.00;46527.44;5070682;28;20169;-84
2024/01/10 06:27:24;;;;;;;58.53;23.63;;;;;;;-141.97;100.00;46508.22;5061492;28;20173;-84
2024/01/10 06:29:49;;;;;;;67.23;28.83;;;;;;;-141.97;100.00;46354.53;5067373;28;20640;-85
2024/01/10 06:32:15;;;;;;;76.13;32.40;;;;;;;-141.97;100.00;46362.22;5067687;28;20192;-85
2024/01/10 06:34:40;;;;;;;79.57;33.00;;;;;;;-141.97;100.00;46400.63;5077672;28;20228;-84
2024/01/10 06:37:07;;;;;;;77.30;33.90;;;;;;;-141.97;100.00;46421.78;5080168;28;20175;-84
2024/01/10 06:39:33;;;;;;;85.80;35.70;;;;;;;-141.97;100.00;46658.13;5070765;28;20171;-87
2024/01/10 06:41:59;;;;;;;91.28;38.85;;;;;;;-141.97;100.00;46406.41;5070885;28;20210;-85
2024/01/10 06:44:24;;;;;;;92.97;38.27;;;;;;;-141.97;100.00;46346.84;5068322;28;20165;-86
2024/01/10 06:46:49;;;;;;;116.60;47.20;;;;;;;-141.97;100.00;46394.88;5069819;28;20266;-85
2024/01/10 06:49:15;;;;;;;148.20;60.53;;;;;;;-141.97;100.00;46254.59;5069608;28;20200;-85
2024/01/10 06:51:40;;;;;;;185.10;72.17;;;;;;;-141.97;100.00;46723.44;5072431;28;20278;-84
2024/01/10 06:54:06;;;;;;;212.80;85.47;;;;;;;-141.97;100.00;46100.91;5070164;28;20164;-85
2024/01/10 06:56:32;;;;;;;250.03;108.90;;;;;;;-141.97;100.00;46644.66;5071449;28;20674;-84
2024/01/10 06:58:59;;;;;;;237.70;92.15;;;;;;;-141.97;100.00;46414.09;5072954;28;20164;-85
2024/01/10 07:01:25;;;;;;;390.42;151.43;;;;;;;-141.97;100.00;46325.69;5072958;28;20309;-83
2024/01/10 07:03:52;;;;;;;429.70;195.73;;;;;;;-141.97;100.00;46492.88;5070500;28;20161;-87
2024/01/10 07:06:24;;;;;;;434.27;205.43;;;;;;;-141.97;100.00;46669.63;5069385;28;20175;-87
2024/01/10 07:08:50;;;;;;;448.45;221.45;;;;;;;-141.97;100.00;46181.59;5068839;28;20219;-83
2024/01/10 07:11:28;;;;;;;193.53;75.30;;;;;;;-141.97;100.00;46298.81;5069956;28;20169;-83
2024/01/10 07:13:57;;;;;;;298.00;113.95;;;;;;;-141.97;100.00;46300.72;5070445;28;20153;-83
2024/01/10 07:16:25;;;;;;;449.58;217.90;;;;;;;-141.97;100.00;46246.94;5069115;28;20176;-84
2024/01/10 07:18:51;;;;;;;391.27;171.83;;;;;;;-141.97;100.00;46504.38;5069236;28;20184;-86
2024/01/10 07:21:17;;;;;;;436.27;182.93;;;;;;;-141.97;100.00;46581.25;5067974;28;20399;-87
2024/01/10 07:23:43;;;;;;;410.93;154.40;;;;;;;-141.97;100.00;46289.19;5087735;28;20184;-88
2024/01/10 07:26:09;;;;;;;280.90;116.90;;;;;;;-141.97;100.00;46154.69;5091620;28;20152;-85
2024/01/10 07:28:34;;;;;;;262.50;105.57;;;;;;;-141.97;100.00;46613.91;5070974;28;20460;-87
2024/01/10 07:31:02;;;;;;;203.80;83.47;;;;;;;-141.97;100.00;46154.69;5071529;28;20173;-87
2024/01/10 07:33:30;;;;;;;194.40;78.83;;;;;;;-141.97;100.00;46343.00;5070967;28;20157;-86
2024/01/10 07:35:57;;;;;;;264.30;110.90;;;;;;;-141.97;100.00;46258.44;5072069;28;20419;-86
2024/01/10 07:38:22;;;;;;;358.77;125.17;;;;;;;-141.97;100.00;46312.25;5076116;28;20395;-86
2024/01/10 07:40:48;;;;;;;274.67;84.43;;;;;;;-141.97;100.00;46588.94;5082065;28;20486;-86
2024/01/10 07:43:13;;;;;;;92.97;36.17;;;;;;;-141.97;100.00;46408.31;5074985;28;20157;-88
2024/01/10 07:45:39;;;;;;;205.17;73.27;;;;;;;-141.97;100.00;46606.22;5070773;28;20228;-87
2024/01/10 07:48:05;;;;;;;283.77;111.07;;;;;;;-141.97;100.00;46677.31;5069019;28;20196;-88
2024/01/10 07:50:30;;;;;;;327.93;113.13;;;;;;;-141.97;100.00;46104.75;5073578;28;20246;-87
2024/01/10 07:52:56;;;;;;;384.73;115.83;;;;;;;-141.97;100.00;46135.50;5073851;28;20203;-88
2024/01/10 07:55:21;;;;;;;144.97;56.93;;;;;;;-141.97;100.00;46744.59;5074644;28;20260;-87
2024/01/10 07:57:47;;;;;;;98.33;38.90;;;;;;;-141.97;100.00;46571.66;5076386;28;20577;-88
2024/01/10 08:00:13;;;;;;;87.60;36.53;;;;;;;-141.97;100.00;46711.91;5075672;28;20248;-87
2024/01/10 08:02:39;;;;;;;128.23;54.33;;;;;;;-141.97;100.00;46387.19;5077661;28;20189;-86
2024/01/10 08:05:08;;;;;;;66.83;27.90;;;;;;;-141.97;100.00;46077.84;5075999;28;20425;-87
2024/01/10 08:07:37;;;;;;;79.40;34.00;;;;;;;-141.97;100.00;46162.38;5073238;28;20413;-87
2024/01/10 08:10:07;;;;;;;50.03;22.17;;;;;;;-141.97;100.00;46573.56;5073232;28;20431;-85
2024/01/10 08:12:33;;;;;;;53.63;24.57;;;;;;;-141.97;100.00;46258.44;5074438;28;20395;-87
2024/01/10 08:14:58;;;;;;;37.87;16.17;;;;;;;-141.97;100.00;46223.88;5073521;28;20433;-88
2024/01/10 08:17:24;;;;;;;43.40;19.77;;;;;;;-141.97;100.00;46196.97;5073975;28;20234;-87
2024/01/10 08:19:50;;;;;;;40.53;16.43;;;;;;;-141.97;100.00;46147.03;5074044;28;20173;-86
2024/01/10 08:22:15;;;;;;;39.47;16.67;;;;;;;-141.97;100.00;46133.56;5073418;28;20242;-91
2024/01/10 08:24:41;;;;;;;32.10;14.73;;;;;;;-141.97;100.00;46074.00;5075408;28;20264;-90
2024/01/10 08:27:06;;;;;;;35.47;15.77;;;;;;;-141.97;100.00;46371.81;5075200;28;20165;-88
2024/01/10 08:29:32;;;;;;;32.60;14.10;;;;;;;-141.97;100.00;46308.41;5074952;28;20201;-89
2024/01/10 08:31:57;;;;;;;40.37;18.57;;;;;;;-141.97;100.00;46350.69;5075136;28;20173;-90
2024/01/10 08:34:24;;;;;;;30.50;13.53;;;;;;;-141.97;100.00;46711.91;5076029;28;20207;-90
2024/01/10 08:36:52;;;;;;;28.63;12.40;;;;;;;-141.97;100.00;46064.41;5077521;28;20580;-90
2024/01/10 08:39:18;;;;;;;80.43;34.70;;;;;;;-141.97;100.00;46346.84;5084027;28;20482;-88
2024/01/10 08:41:44;;;;;;;58.37;26.87;;;;;;;-141.97;100.00;46354.53;5084413;28;20451;-90
2024/01/10 08:44:12;;;;;;;30.77;12.40;;;;;;;-141.97;100.00;46610.06;5092863;28;20160;-90
2024/01/10 08:46:37;;;;;;;30.33;13.13;;;;;;;-141.97;100.00;46260.38;5071214;28;20645;-90
2024/01/10 08:49:03;;;;;;;27.87;12.33;;;;;;;-141.97;100.00;46020.22;5071085;28;20469;-90
2024/01/10 08:51:28;;;;;;;33.57;14.43;;;;;;;-141.97;100.00;46565.88;5077385;28;20246;-87
2024/01/10 08:53:54;;;;;;;32.23;14.27;;;;;;;-141.97;100.00;46220.03;5079013;28;20180;-84
2024/01/10 08:56:19;;;;;;;31.07;14.27;;;;;;;-141.97;100.00;46258.44;5076630;28;20169;-87
2024/01/10 08:58:45;;;;;;;27.60;13.57;;;;;;;-141.97;100.00;46362.22;5075066;28;20546;-87
2024/01/10 09:01:11;;;;;;;31.80;13.13;;;;;;;-141.97;100.00;46663.88;5070596;28;20230;-87
2024/01/10 09:03:37;;;;;;;52.37;22.03;;;;;;;-141.97;100.00;46538.97;5072366;28;20887;-88
2024/01/10 09:06:04;;;;;;;49.77;21.50;;;;;;;-141.97;100.00;46669.63;5075257;28;20153;-87
2024/01/10 09:08:29;;;;;;;56.37;24.07;;;;;;;-141.97;100.00;46196.97;5075087;28;20471;-87
2024/01/10 09:10:55;;;;;;;53.23;23.77;;;;;;;-141.97;100.00;46218.09;5087719;28;20883;-86
2024/01/10 09:13:20;;;;;;;47.03;19.17;;;;;;;-141.97;100.00;46675.41;5072362;28;20160;-88
2024/01/10 09:15:46;;;;;;;54.43;23.70;;;;;;;-141.97;100.00;46183.53;5071682;28;20203;-87
2024/01/10 09:18:11;;;;;;;45.07;20.03;;;;;;;-141.97;100.00;46319.94;5076125;28;20164;-88
2024/01/10 09:20:37;;;;;;;37.33;18.50;;;;;;;-141.97;100.00;46216.19;5075979;28;20654;-86
2024/01/10 09:23:03;;;;;;;51.53;23.60;;;;;;;-141.97;100.00;46223.88;5071440;28;20168;-88
2024/01/10 09:25:29;;;;;;;46.90;23.20;;;;;;;-141.97;100.00;45970.25;5069002;28;20422;-87
2024/01/10 09:27:55;;;;;;;59.67;26.50;;;;;;;-141.97;100.00;46538.97;5071096;28;20274;-88
2024/01/10 09:30:27;;;;;;;212.87;78.53;;;;;;;-141.97;100.00;46316.09;5069770;28;20537;-88
2024/01/10 09:32:52;;;;;;;58.90;23.27;;;;;;;-141.97;100.00;46661.97;5069394;28;20426;-89
2024/01/10 09:35:18;;;;;;;44.57;20.60;;;;;;;-141.97;100.00;46569.72;5070767;28;20875;-88
2024/01/10 09:37:45;;;;;;;58.53;23.70;;;;;;;-141.97;100.00;46560.13;5076399;28;20226;-86
2024/01/10 09:40:14;;;;;;;38.97;18.10;;;;;;;-141.97;100.00;46123.97;5073879;28;20223;-89
2024/01/10 09:42:40;;;;;;;29.43;13.43;;;;;;;-141.97;100.00;46650.44;5070069;28;20415;-90
2024/01/10 09:45:08;;;;;;;41.40;19.50;;;;;;;-141.97;100.00;46663.88;5075890;28;20565;-91
2024/01/10 09:47:36;;;;;;;55.87;25.17;;;;;;;-141.97;100.00;46164.31;5081785;28;20168;-90
2024/01/10 09:50:03;;;;;;;41.43;17.80;;;;;;;-141.97;100.00;46510.16;5085238;28;20489;-91
2024/01/10 09:52:37;;;;;;;52.37;23.07;;;;;;;-141.97;100.00;46406.41;5084720;28;20533;-91
2024/01/10 09:55:04;;;;;;;39.13;17.73;;;;;;;-141.97;100.00;46656.19;5074035;28;20938;-91
2024/01/10 09:57:30;;;;;;;49.43;22.40;;;;;;;-141.97;100.00;46308.41;5073681;28;20922;-91
2024/01/10 09:59:56;;;;;;;43.70;22.00;;;;;;;-141.97;100.00;46277.66;5069772;28;20572;-90
2024/01/10 10:02:23;;;;;;;39.60;18.97;;;;;;;-141.97;100.00;46300.72;5071895;28;20479;-90
2024/01/10 10:05:04;;;;;;;48.97;24.40;;;;;;;-141.97;100.00;46250.78;5070720;28;20181;-91
2024/01/10 10:07:29;;;;;;;98.10;39.13;;;;;;;-141.97;100.00;46577.41;5073226;28;20575;-92
2024/01/10 10:10:01;;;;;;;92.27;37.43;;;;;;;-141.97;100.00;46446.75;5085530;28;20937;-91
2024/01/10 10:12:44;;;;;;;30.37;15.17;;;;;;;-141.97;100.00;46700.38;5081256;28;20256;-88
2024/01/10 10:15:15;;;;;;;52.27;24.97;;;;;;;-141.97;100.00;46675.41;5078398;28;20484;-90
2024/01/10 10:17:46;;;;;;;75.90;36.80;;;;;;;-141.97;100.00;46108.59;5075433;28;20425;-90
2024/01/10 10:20:21;;;;;;;36.47;18.17;;;;;;;-141.97;100.00;46692.69;5076403;28;20491;-89
2024/01/10 10:23:10;;;;;;;45.10;21.47;;;;;;;-141.97;100.00;46310.31;5073075;28;20419;-89
2024/01/10 10:25:47;;;;;;;43.83;20.93;;;;;;;-141.97;100.00;46293.03;5071672;28;20510;-90
2024/01/10 10:28:12;;;;;;;78.30;27.47;;;;;;;-141.97;100.00;46239.25;5083428;28;20438;-90
2024/01/10 10:30:38;;;;;;;65.67;29.07;;;;;;;-141.97;100.00;46325.69;5090680;28;20484;-91
2024/01/10 10:33:04;;;;;;;99.13;43.37;;;;;;;-141.97;100.00;46685.00;5081392;28;20168;-88
2024/01/10 10:35:32;;;;;;;54.50;26.43;;;;;;;-141.97;100.00;46237.31;5078772;28;20149;-92
2024/01/10 10:37:58;;;;;;;37.67;18.30;;;;;;;-141.97;100.00;46083.63;5087096;28;20482;-90
2024/01/10 10:40:27;;;;;;;35.37;17.60;;;;;;;-141.97;100.00;46454.44;5088705;28;20410;-90
2024/01/10 10:42:56;;;;;;;36.20;17.47;;;;;;;-141.97;100.00;46379.50;5084225;28;20391;-90
2024/01/10 10:45:29;;;;;;;33.60;13.70;;;;;;;-141.97;100.00;46554.34;5073776;28;20508;-89
2024/01/10 10:48:00;;;;;;;37.57;16.67;;;;;;;-141.97;100.00;46496.72;5074640;28;20458;-91